sensor_id;sensor_type;location;lat;lon;timestamp;P1;durP1;ratioP1;P2;durP2;ratioP2
17496;SDS011;62150;43.582;1.456;2022-11-30T06:19:22;10.83;;;4.97;;
17496;SDS011;62150;43.582;1.456;2022-11-30T06:24:48;9.73;;;4.23;;
17496;SDS011;62150;43.582;1.456;2022-11-30T06:27:15;9.67;;;4.10;;
17496;SDS011;62150;43.582;1.456;2022-11-30T06:29:43;7.90;;;3.70;;
17496;SDS011;62150;43.582;1.456;2022-11-30T06:32:10;8.30;;;3.37;;
17496;SDS011;62150;43.582;1.456;2022-11-30T06:34:39;9.50;;;4.17;;
17496;SDS011;62150;43.582;1.456;2022-11-30T06:37:07;9.07;;;3.63;;
17496;SDS011;62150;43.582;1.456;2022-11-30T06:39:34;7.87;;;3.50;;
17496;SDS011;62150;43.582;1.456;2022-11-30T06:42:02;9.83;;;3.87;;
17496;SDS011;62150;43.582;1.456;2022-11-30T06:44:30;9.40;;;3.67;;
17496;SDS011;62150;43.582;1.456;2022-11-30T06:46:57;7.67;;;3.50;;
17496;SDS011;62150;43.582;1.456;2022-11-30T06:49:24;8.40;;;3.80;;
17496;SDS011;62150;43.582;1.456;2022-11-30T06:51:53;8.70;;;3.87;;
17496;SDS011;62150;43.582;1.456;2022-11-30T06:54:21;8.47;;;3.73;;
17496;SDS011;62150;43.582;1.456;2022-11-30T06:56:48;8.87;;;3.80;;
17496;SDS011;62150;43.582;1.456;2022-11-30T06:59:16;8.73;;;3.73;;
17496;SDS011;62150;43.582;1.456;2022-11-30T07:01:43;8.40;;;3.47;;
17496;SDS011;62150;43.582;1.456;2022-11-30T07:04:11;8.20;;;3.67;;
17496;SDS011;62150;43.582;1.456;2022-11-30T07:06:38;8.83;;;3.47;;
17496;SDS011;62150;43.582;1.456;2022-11-30T07:09:08;8.20;;;3.70;;
17496;SDS011;62150;43.582;1.456;2022-11-30T07:11:37;8.40;;;3.30;;
17496;SDS011;62150;43.582;1.456;2022-11-30T07:14:05;8.87;;;3.87;;
17496;SDS011;62150;43.582;1.456;2022-11-30T07:16:32;8.73;;;3.33;;
17496;SDS011;62150;43.582;1.456;2022-11-30T07:19:00;9.07;;;3.83;;
17496;SDS011;62150;43.582;1.456;2022-11-30T07:21:27;9.93;;;4.07;;
17496;SDS011;62150;43.582;1.456;2022-11-30T07:23:55;9.10;;;4.10;;
17496;SDS011;62150;43.582;1.456;2022-11-30T07:26:41;9.23;;;3.77;;
17496;SDS011;62150;43.582;1.456;2022-11-30T07:29:09;9.17;;;3.67;;
17496;SDS011;62150;43.582;1.456;2022-11-30T07:31:36;9.37;;;3.90;;
17496;SDS011;62150;43.582;1.456;2022-11-30T07:34:04;8.27;;;3.57;;
17496;SDS011;62150;43.582;1.456;2022-11-30T07:36:33;8.27;;;3.70;;
17496;SDS011;62150;43.582;1.456;2022-11-30T07:39:02;8.23;;;3.60;;
17496;SDS011;62150;43.582;1.456;2022-11-30T07:41:29;8.90;;;3.60;;
17496;SDS011;62150;43.582;1.456;2022-11-30T07:43:59;9.77;;;4.00;;
17496;SDS011;62150;43.582;1.456;2022-11-30T07:46:26;9.30;;;4.10;;
17496;SDS011;62150;43.582;1.456;2022-11-30T07:48:55;9.57;;;4.07;;
17496;SDS011;62150;43.582;1.456;2022-11-30T07:51:23;9.80;;;4.30;;
17496;SDS011;62150;43.582;1.456;2022-11-30T07:53:50;10.27;;;4.50;;
17496;SDS011;62150;43.582;1.456;2022-11-30T07:56:20;9.87;;;4.30;;
17496;SDS011;62150;43.582;1.456;2022-11-30T07:58:49;10.80;;;4.70;;
17496;SDS011;62150;43.582;1.456;2022-11-30T08:01:21;10.83;;;4.37;;
17496;SDS011;62150;43.582;1.456;2022-11-30T08:03:50;9.93;;;4.50;;
17496;SDS011;62150;43.582;1.456;2022-11-30T08:06:19;9.70;;;4.63;;
17496;SDS011;62150;43.582;1.456;2022-11-30T08:08:48;10.13;;;4.50;;
17496;SDS011;62150;43.582;1.456;2022-11-30T08:11:18;9.77;;;4.60;;
17496;SDS011;62150;43.582;1.456;2022-11-30T08:13:46;9.83;;;4.30;;
17496;SDS011;62150;43.582;1.456;2022-11-30T08:16:14;9.23;;;4.33;;
17496;SDS011;62150;43.582;1.456;2022-11-30T08:18:45;9.57;;;4.23;;
17496;SDS011;62150;43.582;1.456;2022-11-30T08:21:14;9.50;;;4.10;;
17496;SDS011;62150;43.582;1.456;2022-11-30T08:23:44;11.03;;;4.57;;
17496;SDS011;62150;43.582;1.456;2022-11-30T08:26:13;9.53;;;4.17;;
17496;SDS011;62150;43.582;1.456;2022-11-30T08:28:43;10.07;;;4.57;;
17496;SDS011;62150;43.582;1.456;2022-11-30T08:31:12;10.10;;;4.57;;
17496;SDS011;62150;43.582;1.456;2022-11-30T08:33:41;10.33;;;4.50;;
17496;SDS011;62150;43.582;1.456;2022-11-30T08:36:10;10.57;;;4.77;;
17496;SDS011;62150;43.582;1.456;2022-11-30T08:38:39;10.57;;;4.57;;
17496;SDS011;62150;43.582;1.456;2022-11-30T08:41:09;10.30;;;4.53;;
17496;SDS011;62150;43.582;1.456;2022-11-30T08:43:37;10.27;;;4.13;;
17496;SDS011;62150;43.582;1.456;2022-11-30T08:46:06;10.47;;;4.60;;
17496;SDS011;62150;43.582;1.456;2022-11-30T08:48:36;9.47;;;4.47;;
17496;SDS011;62150;43.582;1.456;2022-11-30T08:51:05;10.77;;;4.50;;
17496;SDS011;62150;43.582;1.456;2022-11-30T08:53:36;10.33;;;4.33;;
17496;SDS011;62150;43.582;1.456;2022-11-30T08:56:05;11.23;;;5.23;;
17496;SDS011;62150;43.582;1.456;2022-11-30T08:58:36;10.80;;;4.73;;
17496;SDS011;62150;43.582;1.456;2022-11-30T09:01:06;11.33;;;4.77;;
17496;SDS011;62150;43.582;1.456;2022-11-30T09:03:34;10.60;;;4.60;;
17496;SDS011;62150;43.582;1.456;2022-11-30T09:06:02;9.90;;;4.53;;
17496;SDS011;62150;43.582;1.456;2022-11-30T09:08:31;10.37;;;4.70;;
17496;SDS011;62150;43.582;1.456;2022-11-30T09:11:07;9.97;;;4.87;;
17496;SDS011;62150;43.582;1.456;2022-11-30T09:13:36;10.40;;;4.67;;
17496;SDS011;62150;43.582;1.456;2022-11-30T09:16:04;9.90;;;4.57;;
17496;SDS011;62150;43.582;1.456;2022-11-30T09:18:32;10.47;;;4.40;;
17496;SDS011;62150;43.582;1.456;2022-11-30T09:21:00;10.17;;;4.57;;
17496;SDS011;62150;43.582;1.456;2022-11-30T09:23:29;9.83;;;4.53;;
17496;SDS011;62150;43.582;1.456;2022-11-30T09:25:57;10.77;;;5.00;;
17496;SDS011;62150;43.582;1.456;2022-11-30T09:28:28;11.13;;;5.03;;
17496;SDS011;62150;43.582;1.456;2022-11-30T09:30:59;10.00;;;4.30;;
17496;SDS011;62150;43.582;1.456;2022-11-30T09:33:28;10.33;;;4.80;;
17496;SDS011;62150;43.582;1.456;2022-11-30T09:35:56;10.43;;;4.60;;
17496;SDS011;62150;43.582;1.456;2022-11-30T09:38:26;12.10;;;4.90;;
17496;SDS011;62150;43.582;1.456;2022-11-30T09:40:54;11.23;;;4.87;;
17496;SDS011;62150;43.582;1.456;2022-11-30T09:43:27;10.87;;;4.83;;
17496;SDS011;62150;43.582;1.456;2022-11-30T09:46:05;11.07;;;4.80;;
17496;SDS011;62150;43.582;1.456;2022-11-30T09:51:22;9.97;;;4.67;;
17496;SDS011;62150;43.582;1.456;2022-11-30T09:53:54;10.43;;;4.77;;
17496;SDS011;62150;43.582;1.456;2022-11-30T09:56:26;10.43;;;4.77;;
17496;SDS011;62150;43.582;1.456;2022-11-30T09:59:01;9.73;;;4.47;;
17496;SDS011;62150;43.582;1.456;2022-11-30T10:01:33;11.50;;;5.17;;
17496;SDS011;62150;43.582;1.456;2022-11-30T10:04:01;11.33;;;5.17;;
17496;SDS011;62150;43.582;1.456;2022-11-30T10:06:31;10.50;;;4.70;;
17496;SDS011;62150;43.582;1.456;2022-11-30T10:09:22;11.37;;;5.43;;
17496;SDS011;62150;43.582;1.456;2022-11-30T10:11:59;11.33;;;4.73;;
17496;SDS011;62150;43.582;1.456;2022-11-30T10:14:36;10.53;;;4.80;;
17496;SDS011;62150;43.582;1.456;2022-11-30T10:17:31;11.50;;;5.27;;
17496;SDS011;62150;43.582;1.456;2022-11-30T10:20:27;11.07;;;5.13;;
17496;SDS011;62150;43.582;1.456;2022-11-30T10:23:13;11.27;;;4.83;;
17496;SDS011;62150;43.582;1.456;2022-11-30T10:25:53;11.53;;;5.27;;
17496;SDS011;62150;43.582;1.456;2022-11-30T10:28:26;10.77;;;4.77;;
17496;SDS011;62150;43.582;1.456;2022-11-30T10:31:03;11.93;;;5.30;;
17496;SDS011;62150;43.582;1.456;2022-11-30T10:33:37;10.40;;;4.73;;
17496;SDS011;62150;43.582;1.456;2022-11-30T10:36:11;11.03;;;5.10;;
17496;SDS011;62150;43.582;1.456;2022-11-30T10:38:42;9.47;;;4.37;;
17496;SDS011;62150;43.582;1.456;2022-11-30T10:41:15;10.43;;;4.43;;
17496;SDS011;62150;43.582;1.456;2022-11-30T10:43:47;11.03;;;4.57;;
17496;SDS011;62150;43.582;1.456;2022-11-30T10:46:22;10.27;;;4.57;;
17496;SDS011;62150;43.582;1.456;2022-11-30T10:48:54;10.63;;;4.70;;
17496;SDS011;62150;43.582;1.456;2022-11-30T10:51:28;9.93;;;4.40;;
17496;SDS011;62150;43.582;1.456;2022-11-30T10:53:59;11.10;;;4.67;;
17496;SDS011;62150;43.582;1.456;2022-11-30T10:56:28;10.43;;;4.47;;
17496;SDS011;62150;43.582;1.456;2022-11-30T10:58:57;10.13;;;4.50;;
17496;SDS011;62150;43.582;1.456;2022-11-30T11:01:31;9.90;;;4.50;;
17496;SDS011;62150;43.582;1.456;2022-11-30T11:04:08;10.17;;;4.43;;
17496;SDS011;62150;43.582;1.456;2022-11-30T11:06:42;10.47;;;4.87;;
17496;SDS011;62150;43.582;1.456;2022-11-30T11:09:22;10.40;;;4.53;;
17496;SDS011;62150;43.582;1.456;2022-11-30T11:12:01;11.60;;;4.67;;
17496;SDS011;62150;43.582;1.456;2022-11-30T11:14:31;11.23;;;5.00;;
17496;SDS011;62150;43.582;1.456;2022-11-30T11:17:02;10.57;;;4.80;;
17496;SDS011;62150;43.582;1.456;2022-11-30T11:19:32;11.77;;;4.90;;
17496;SDS011;62150;43.582;1.456;2022-11-30T11:22:02;9.97;;;4.53;;
17496;SDS011;62150;43.582;1.456;2022-11-30T11:24:32;13.03;;;5.43;;
17496;SDS011;62150;43.582;1.456;2022-11-30T11:27:01;11.77;;;5.30;;
17496;SDS011;62150;43.582;1.456;2022-11-30T11:29:30;11.20;;;5.07;;
17496;SDS011;62150;43.582;1.456;2022-11-30T11:34:50;11.73;;;4.70;;
17496;SDS011;62150;43.582;1.456;2022-11-30T11:37:19;11.97;;;5.30;;
17496;SDS011;62150;43.582;1.456;2022-11-30T11:39:57;11.70;;;5.50;;
17496;SDS011;62150;43.582;1.456;2022-11-30T11:42:26;12.07;;;5.53;;
17496;SDS011;62150;43.582;1.456;2022-11-30T11:44:57;12.53;;;5.53;;
17496;SDS011;62150;43.582;1.456;2022-11-30T11:47:34;13.07;;;5.53;;
17496;SDS011;62150;43.582;1.456;2022-11-30T11:53:12;11.77;;;5.07;;
17496;SDS011;62150;43.582;1.456;2022-11-30T11:55:47;12.10;;;5.23;;
17496;SDS011;62150;43.582;1.456;2022-11-30T11:58:21;11.37;;;5.10;;
17496;SDS011;62150;43.582;1.456;2022-11-30T12:01:00;10.97;;;5.40;;
17496;SDS011;62150;43.582;1.456;2022-11-30T12:03:35;11.80;;;5.40;;
17496;SDS011;62150;43.582;1.456;2022-11-30T12:06:09;9.93;;;4.73;;
17496;SDS011;62150;43.582;1.456;2022-11-30T12:08:43;12.33;;;5.57;;
17496;SDS011;62150;43.582;1.456;2022-11-30T12:11:17;11.20;;;5.07;;
17496;SDS011;62150;43.582;1.456;2022-11-30T12:13:49;11.67;;;5.13;;
17496;SDS011;62150;43.582;1.456;2022-11-30T12:16:23;12.67;;;5.60;;
17496;SDS011;62150;43.582;1.456;2022-11-30T12:19:07;12.83;;;5.57;;
17496;SDS011;62150;43.582;1.456;2022-11-30T12:21:44;12.80;;;5.70;;
17496;SDS011;62150;43.582;1.456;2022-11-30T12:24:25;11.27;;;5.13;;
17496;SDS011;62150;43.582;1.456;2022-11-30T12:27:08;11.10;;;5.00;;
17496;SDS011;62150;43.582;1.456;2022-11-30T12:29:47;11.90;;;5.57;;
17496;SDS011;62150;43.582;1.456;2022-11-30T12:32:27;11.93;;;5.37;;
17496;SDS011;62150;43.582;1.456;2022-11-30T12:35:16;12.20;;;5.33;;
17496;SDS011;62150;43.582;1.456;2022-11-30T12:37:56;11.10;;;5.40;;
17496;SDS011;62150;43.582;1.456;2022-11-30T12:40:32;12.73;;;6.00;;
17496;SDS011;62150;43.582;1.456;2022-11-30T12:43:09;13.23;;;6.30;;
17496;SDS011;62150;43.582;1.456;2022-11-30T12:45:45;11.83;;;5.60;;
17496;SDS011;62150;43.582;1.456;2022-11-30T12:48:18;12.37;;;5.77;;
17496;SDS011;62150;43.582;1.456;2022-11-30T12:50:58;12.90;;;6.37;;
17496;SDS011;62150;43.582;1.456;2022-11-30T12:53:40;12.93;;;6.47;;
17496;SDS011;62150;43.582;1.456;2022-11-30T12:56:20;13.67;;;6.20;;
17496;SDS011;62150;43.582;1.456;2022-11-30T12:58:58;14.80;;;7.40;;
17496;SDS011;62150;43.582;1.456;2022-11-30T13:01:37;13.73;;;6.83;;
17496;SDS011;62150;43.582;1.456;2022-11-30T13:04:18;14.33;;;6.40;;
17496;SDS011;62150;43.582;1.456;2022-11-30T13:06:54;14.60;;;6.67;;
17496;SDS011;62150;43.582;1.456;2022-11-30T13:09:27;13.10;;;6.40;;
17496;SDS011;62150;43.582;1.456;2022-11-30T13:11:59;12.50;;;5.90;;
17496;SDS011;62150;43.582;1.456;2022-11-30T13:14:32;13.00;;;6.30;;
17496;SDS011;62150;43.582;1.456;2022-11-30T13:17:02;13.13;;;6.00;;
17496;SDS011;62150;43.582;1.456;2022-11-30T13:19:39;12.20;;;5.83;;
17496;SDS011;62150;43.582;1.456;2022-11-30T13:22:16;12.37;;;5.60;;
17496;SDS011;62150;43.582;1.456;2022-11-30T13:24:50;13.37;;;6.40;;
17496;SDS011;62150;43.582;1.456;2022-11-30T13:27:28;12.37;;;5.67;;
17496;SDS011;62150;43.582;1.456;2022-11-30T13:30:17;12.97;;;5.97;;
17496;SDS011;62150;43.582;1.456;2022-11-30T13:53:07;12.93;;;6.63;;
17496;SDS011;62150;43.582;1.456;2022-11-30T13:55:50;12.20;;;5.60;;
17496;SDS011;62150;43.582;1.456;2022-11-30T13:58:30;11.93;;;5.57;;
17496;SDS011;62150;43.582;1.456;2022-11-30T14:01:02;11.73;;;5.40;;
17496;SDS011;62150;43.582;1.456;2022-11-30T14:06:57;10.50;;;4.40;;
17496;SDS011;62150;43.582;1.456;2022-11-30T14:15:29;9.83;;;4.60;;
17496;SDS011;62150;43.582;1.456;2022-11-30T14:18:21;10.70;;;5.10;;
17496;SDS011;62150;43.582;1.456;2022-11-30T14:21:12;10.50;;;5.17;;
17496;SDS011;62150;43.582;1.456;2022-11-30T14:23:42;10.60;;;4.73;;
17496;SDS011;62150;43.582;1.456;2022-11-30T14:26:19;13.03;;;5.13;;
17496;SDS011;62150;43.582;1.456;2022-11-30T14:28:51;10.53;;;4.77;;
17496;SDS011;62150;43.582;1.456;2022-11-30T14:31:25;11.40;;;5.03;;
17496;SDS011;62150;43.582;1.456;2022-11-30T14:33:57;10.70;;;4.60;;
17496;SDS011;62150;43.582;1.456;2022-11-30T14:36:32;10.63;;;4.67;;
17496;SDS011;62150;43.582;1.456;2022-11-30T14:39:03;10.67;;;4.60;;
17496;SDS011;62150;43.582;1.456;2022-11-30T14:41:50;10.93;;;4.57;;
17496;SDS011;62150;43.582;1.456;2022-11-30T14:44:18;10.60;;;5.20;;
17496;SDS011;62150;43.582;1.456;2022-11-30T14:46:46;9.97;;;4.80;;
17496;SDS011;62150;43.582;1.456;2022-11-30T14:49:14;10.70;;;5.30;;
17496;SDS011;62150;43.582;1.456;2022-11-30T14:51:48;12.17;;;5.67;;
17496;SDS011;62150;43.582;1.456;2022-11-30T14:57:14;10.07;;;4.93;;
17496;SDS011;62150;43.582;1.456;2022-11-30T14:59:51;10.00;;;4.67;;
17496;SDS011;62150;43.582;1.456;2022-11-30T15:02:26;10.93;;;4.83;;
17496;SDS011;62150;43.582;1.456;2022-11-30T15:04:58;10.80;;;4.90;;
17496;SDS011;62150;43.582;1.456;2022-11-30T15:07:27;10.20;;;4.70;;
17496;SDS011;62150;43.582;1.456;2022-11-30T15:09:59;9.47;;;4.50;;
17496;SDS011;62150;43.582;1.456;2022-11-30T15:12:31;9.33;;;4.30;;
17496;SDS011;62150;43.582;1.456;2022-11-30T15:15:02;10.83;;;4.90;;
17496;SDS011;62150;43.582;1.456;2022-11-30T15:17:31;11.00;;;5.20;;
17496;SDS011;62150;43.582;1.456;2022-11-30T15:20:17;11.37;;;5.13;;
17496;SDS011;62150;43.582;1.456;2022-11-30T15:22:50;11.73;;;5.10;;
17496;SDS011;62150;43.582;1.456;2022-11-30T15:25:18;11.40;;;5.07;;
17496;SDS011;62150;43.582;1.456;2022-11-30T15:27:50;10.57;;;4.80;;
17496;SDS011;62150;43.582;1.456;2022-11-30T15:30:18;9.77;;;4.50;;
17496;SDS011;62150;43.582;1.456;2022-11-30T15:32:48;10.10;;;4.73;;
17496;SDS011;62150;43.582;1.456;2022-11-30T15:35:21;11.30;;;4.80;;
17496;SDS011;62150;43.582;1.456;2022-11-30T15:37:51;10.70;;;4.63;;
17496;SDS011;62150;43.582;1.456;2022-11-30T15:40:21;10.53;;;4.67;;
17496;SDS011;62150;43.582;1.456;2022-11-30T15:42:58;9.83;;;4.53;;
17496;SDS011;62150;43.582;1.456;2022-11-30T15:45:28;11.73;;;5.20;;
17496;SDS011;62150;43.582;1.456;2022-11-30T15:47:59;11.03;;;4.50;;
17496;SDS011;62150;43.582;1.456;2022-11-30T15:50:35;9.50;;;4.60;;
17496;SDS011;62150;43.582;1.456;2022-11-30T15:53:25;10.57;;;5.07;;
17496;SDS011;62150;43.582;1.456;2022-11-30T15:55:55;11.33;;;4.80;;
17496;SDS011;62150;43.582;1.456;2022-11-30T15:58:27;10.33;;;4.97;;
17496;SDS011;62150;43.582;1.456;2022-11-30T16:01:08;11.57;;;5.27;;
17496;SDS011;62150;43.582;1.456;2022-11-30T16:03:58;11.50;;;5.47;;
17496;SDS011;62150;43.582;1.456;2022-11-30T16:06:28;11.13;;;5.07;;
17496;SDS011;62150;43.582;1.456;2022-11-30T16:09:00;9.73;;;4.83;;
17496;SDS011;62150;43.582;1.456;2022-11-30T16:11:32;11.80;;;5.27;;
17496;SDS011;62150;43.582;1.456;2022-11-30T16:14:02;10.90;;;5.40;;
17496;SDS011;62150;43.582;1.456;2022-11-30T16:16:30;10.27;;;4.93;;
17496;SDS011;62150;43.582;1.456;2022-11-30T16:18:58;10.87;;;5.60;;
17496;SDS011;62150;43.582;1.456;2022-11-30T16:21:26;11.97;;;5.60;;
17496;SDS011;62150;43.582;1.456;2022-11-30T16:23:54;11.70;;;5.60;;
17496;SDS011;62150;43.582;1.456;2022-11-30T16:26:22;13.10;;;5.73;;
17496;SDS011;62150;43.582;1.456;2022-11-30T16:28:50;12.67;;;6.07;;
17496;SDS011;62150;43.582;1.456;2022-11-30T16:31:20;11.47;;;5.53;;
17496;SDS011;62150;43.582;1.456;2022-11-30T16:33:49;11.70;;;5.73;;
17496;SDS011;62150;43.582;1.456;2022-11-30T16:36:17;12.00;;;5.87;;
17496;SDS011;62150;43.582;1.456;2022-11-30T16:38:46;12.30;;;5.77;;
17496;SDS011;62150;43.582;1.456;2022-11-30T16:41:15;11.50;;;5.60;;
17496;SDS011;62150;43.582;1.456;2022-11-30T16:43:44;13.17;;;5.97;;
17496;SDS011;62150;43.582;1.456;2022-11-30T16:46:14;12.67;;;6.00;;
17496;SDS011;62150;43.582;1.456;2022-11-30T16:48:44;11.83;;;5.87;;
17496;SDS011;62150;43.582;1.456;2022-11-30T16:51:13;11.23;;;5.77;;
17496;SDS011;62150;43.582;1.456;2022-11-30T16:53:43;12.77;;;5.93;;
17496;SDS011;62150;43.582;1.456;2022-11-30T16:56:11;11.57;;;5.30;;
17496;SDS011;62150;43.582;1.456;2022-11-30T16:58:40;12.03;;;5.87;;
17496;SDS011;62150;43.582;1.456;2022-11-30T17:01:10;11.23;;;5.50;;
17496;SDS011;62150;43.582;1.456;2022-11-30T17:03:40;12.50;;;5.90;;
17496;SDS011;62150;43.582;1.456;2022-11-30T17:06:15;11.20;;;5.37;;
17496;SDS011;62150;43.582;1.456;2022-11-30T17:08:45;11.70;;;5.60;;
17496;SDS011;62150;43.582;1.456;2022-11-30T17:11:15;10.90;;;5.60;;
17496;SDS011;62150;43.582;1.456;2022-11-30T17:13:45;11.53;;;5.47;;
17496;SDS011;62150;43.582;1.456;2022-11-30T17:16:12;11.93;;;5.80;;
17496;SDS011;62150;43.582;1.456;2022-11-30T17:18:40;12.63;;;7.03;;
17496;SDS011;62150;43.582;1.456;2022-11-30T17:21:11;14.07;;;7.60;;
17496;SDS011;62150;43.582;1.456;2022-11-30T17:23:41;13.90;;;7.13;;
17496;SDS011;62150;43.582;1.456;2022-11-30T17:26:08;12.77;;;6.53;;
17496;SDS011;62150;43.582;1.456;2022-11-30T17:28:36;12.03;;;6.20;;
17496;SDS011;62150;43.582;1.456;2022-11-30T17:31:05;12.70;;;6.30;;
17496;SDS011;62150;43.582;1.456;2022-11-30T17:33:33;13.50;;;7.20;;
17496;SDS011;62150;43.582;1.456;2022-11-30T17:36:02;12.40;;;6.37;;
17496;SDS011;62150;43.582;1.456;2022-11-30T17:38:33;12.60;;;6.93;;
17496;SDS011;62150;43.582;1.456;2022-11-30T17:41:02;13.53;;;7.03;;
17496;SDS011;62150;43.582;1.456;2022-11-30T17:43:30;12.30;;;6.77;;
17496;SDS011;62150;43.582;1.456;2022-11-30T17:46:02;15.10;;;9.70;;
17496;SDS011;62150;43.582;1.456;2022-11-30T17:48:30;15.30;;;9.83;;
17496;SDS011;62150;43.582;1.456;2022-11-30T17:50:58;15.63;;;9.87;;
17496;SDS011;62150;43.582;1.456;2022-11-30T17:53:26;15.30;;;9.43;;
17496;SDS011;62150;43.582;1.456;2022-11-30T17:56:01;14.77;;;8.80;;
17496;SDS011;62150;43.582;1.456;2022-11-30T17:58:29;13.23;;;7.37;;
17496;SDS011;62150;43.582;1.456;2022-11-30T18:00:58;13.53;;;7.50;;
17496;SDS011;62150;43.582;1.456;2022-11-30T18:03:26;13.47;;;7.00;;
17496;SDS011;62150;43.582;1.456;2022-11-30T18:05:58;14.77;;;7.47;;
17496;SDS011;62150;43.582;1.456;2022-11-30T18:08:26;14.57;;;7.17;;
17496;SDS011;62150;43.582;1.456;2022-11-30T18:10:57;13.97;;;7.10;;
17496;SDS011;62150;43.582;1.456;2022-11-30T18:13:28;14.13;;;8.10;;
17496;SDS011;62150;43.582;1.456;2022-11-30T18:16:04;14.03;;;7.73;;
17496;SDS011;62150;43.582;1.456;2022-11-30T18:18:33;13.87;;;7.03;;
17496;SDS011;62150;43.582;1.456;2022-11-30T18:21:02;14.23;;;7.80;;
17496;SDS011;62150;43.582;1.456;2022-11-30T18:23:30;13.77;;;7.27;;
17496;SDS011;62150;43.582;1.456;2022-11-30T18:25:59;13.63;;;7.60;;
17496;SDS011;62150;43.582;1.456;2022-11-30T18:28:28;15.20;;;7.20;;
17496;SDS011;62150;43.582;1.456;2022-11-30T18:30:56;13.47;;;7.10;;
17496;SDS011;62150;43.582;1.456;2022-11-30T18:33:24;13.97;;;7.50;;
17496;SDS011;62150;43.582;1.456;2022-11-30T18:35:55;12.80;;;7.13;;
17496;SDS011;62150;43.582;1.456;2022-11-30T18:38:23;14.53;;;7.37;;
17496;SDS011;62150;43.582;1.456;2022-11-30T18:40:51;13.10;;;7.20;;
17496;SDS011;62150;43.582;1.456;2022-11-30T18:43:19;13.37;;;7.27;;
17496;SDS011;62150;43.582;1.456;2022-11-30T18:45:48;14.93;;;7.57;;
17496;SDS011;62150;43.582;1.456;2022-11-30T18:48:16;13.77;;;7.67;;
17496;SDS011;62150;43.582;1.456;2022-11-30T18:50:44;15.93;;;7.93;;
17496;SDS011;62150;43.582;1.456;2022-11-30T18:53:12;14.67;;;7.87;;
17496;SDS011;62150;43.582;1.456;2022-11-30T18:55:40;14.40;;;7.83;;
17496;SDS011;62150;43.582;1.456;2022-11-30T18:58:07;16.40;;;8.77;;
17496;SDS011;62150;43.582;1.456;2022-11-30T19:00:35;17.67;;;9.20;;
17496;SDS011;62150;43.582;1.456;2022-11-30T19:03:04;17.50;;;9.73;;
17496;SDS011;62150;43.582;1.456;2022-11-30T19:05:34;16.73;;;8.73;;
17496;SDS011;62150;43.582;1.456;2022-11-30T19:08:04;15.60;;;8.33;;
17496;SDS011;62150;43.582;1.456;2022-11-30T19:10:34;16.20;;;9.07;;
17496;SDS011;62150;43.582;1.456;2022-11-30T19:13:03;16.93;;;8.93;;
17496;SDS011;62150;43.582;1.456;2022-11-30T19:15:35;16.03;;;8.67;;
17496;SDS011;62150;43.582;1.456;2022-11-30T19:18:05;17.40;;;8.70;;
17496;SDS011;62150;43.582;1.456;2022-11-30T19:20:36;16.27;;;8.70;;
17496;SDS011;62150;43.582;1.456;2022-11-30T19:23:04;15.37;;;8.30;;
17496;SDS011;62150;43.582;1.456;2022-11-30T19:25:32;17.13;;;9.50;;
17496;SDS011;62150;43.582;1.456;2022-11-30T19:28:00;15.80;;;9.00;;
17496;SDS011;62150;43.582;1.456;2022-11-30T19:30:27;17.37;;;9.67;;
17496;SDS011;62150;43.582;1.456;2022-11-30T19:32:55;16.97;;;8.73;;
17496;SDS011;62150;43.582;1.456;2022-11-30T19:35:24;15.97;;;9.00;;
17496;SDS011;62150;43.582;1.456;2022-11-30T19:37:51;16.83;;;8.93;;
17496;SDS011;62150;43.582;1.456;2022-11-30T19:40:19;16.20;;;8.70;;
17496;SDS011;62150;43.582;1.456;2022-11-30T19:42:46;17.70;;;8.53;;
17496;SDS011;62150;43.582;1.456;2022-11-30T19:45:14;16.67;;;9.13;;
17496;SDS011;62150;43.582;1.456;2022-11-30T19:47:42;17.53;;;9.27;;
17496;SDS011;62150;43.582;1.456;2022-11-30T19:50:10;17.33;;;9.13;;
17496;SDS011;62150;43.582;1.456;2022-11-30T19:52:39;17.87;;;9.87;;
17496;SDS011;62150;43.582;1.456;2022-11-30T19:55:07;18.80;;;10.30;;
17496;SDS011;62150;43.582;1.456;2022-11-30T19:57:35;18.10;;;10.30;;
17496;SDS011;62150;43.582;1.456;2022-11-30T20:00:04;18.63;;;10.07;;
17496;SDS011;62150;43.582;1.456;2022-11-30T20:02:33;18.80;;;10.50;;
17496;SDS011;62150;43.582;1.456;2022-11-30T20:05:01;19.83;;;10.83;;
17496;SDS011;62150;43.582;1.456;2022-11-30T20:07:28;19.47;;;10.80;;
17496;SDS011;62150;43.582;1.456;2022-11-30T20:09:57;18.53;;;10.60;;
17496;SDS011;62150;43.582;1.456;2022-11-30T20:12:25;20.17;;;10.67;;
17496;SDS011;62150;43.582;1.456;2022-11-30T20:14:53;20.00;;;10.83;;
17496;SDS011;62150;43.582;1.456;2022-11-30T20:17:20;19.90;;;10.90;;
17496;SDS011;62150;43.582;1.456;2022-11-30T20:19:48;20.30;;;10.77;;
17496;SDS011;62150;43.582;1.456;2022-11-30T20:22:15;19.47;;;10.50;;
17496;SDS011;62150;43.582;1.456;2022-11-30T20:24:43;19.77;;;10.80;;
17496;SDS011;62150;43.582;1.456;2022-11-30T20:27:12;20.37;;;10.17;;
17496;SDS011;62150;43.582;1.456;2022-11-30T20:29:47;18.70;;;9.97;;
17496;SDS011;62150;43.582;1.456;2022-11-30T20:32:15;18.50;;;9.67;;
17496;SDS011;62150;43.582;1.456;2022-11-30T20:34:43;21.13;;;10.97;;
17496;SDS011;62150;43.582;1.456;2022-11-30T20:37:11;20.80;;;11.13;;
17496;SDS011;62150;43.582;1.456;2022-11-30T20:39:39;20.70;;;10.53;;
17496;SDS011;62150;43.582;1.456;2022-11-30T20:42:07;20.03;;;10.40;;
17496;SDS011;62150;43.582;1.456;2022-11-30T20:44:36;19.13;;;9.80;;
17496;SDS011;62150;43.582;1.456;2022-11-30T20:47:04;20.67;;;10.43;;
17496;SDS011;62150;43.582;1.456;2022-11-30T20:49:31;21.17;;;10.33;;
17496;SDS011;62150;43.582;1.456;2022-11-30T20:51:59;19.60;;;9.67;;
17496;SDS011;62150;43.582;1.456;2022-11-30T20:54:26;21.53;;;9.70;;
17496;SDS011;62150;43.582;1.456;2022-11-30T20:56:55;20.00;;;10.50;;
17496;SDS011;62150;43.582;1.456;2022-11-30T20:59:23;21.53;;;10.97;;
17496;SDS011;62150;43.582;1.456;2022-11-30T21:01:53;19.90;;;10.27;;
17496;SDS011;62150;43.582;1.456;2022-11-30T21:04:22;21.93;;;11.10;;
17496;SDS011;62150;43.582;1.456;2022-11-30T21:06:51;21.40;;;10.90;;
17496;SDS011;62150;43.582;1.456;2022-11-30T21:09:19;20.83;;;11.37;;
17496;SDS011;62150;43.582;1.456;2022-11-30T21:11:47;21.30;;;11.40;;
17496;SDS011;62150;43.582;1.456;2022-11-30T21:14:14;20.80;;;10.53;;
17496;SDS011;62150;43.582;1.456;2022-11-30T21:16:42;23.83;;;13.13;;
17496;SDS011;62150;43.582;1.456;2022-11-30T21:19:11;28.77;;;18.87;;
17496;SDS011;62150;43.582;1.456;2022-11-30T21:21:39;24.10;;;15.17;;
17496;SDS011;62150;43.582;1.456;2022-11-30T21:24:07;27.17;;;15.73;;
17496;SDS011;62150;43.582;1.456;2022-11-30T21:26:37;25.33;;;14.83;;
17496;SDS011;62150;43.582;1.456;2022-11-30T21:29:06;23.60;;;13.03;;
17496;SDS011;62150;43.582;1.456;2022-11-30T21:31:36;21.43;;;11.60;;
17496;SDS011;62150;43.582;1.456;2022-11-30T21:34:04;21.50;;;11.70;;
17496;SDS011;62150;43.582;1.456;2022-11-30T21:36:33;21.30;;;12.03;;
17496;SDS011;62150;43.582;1.456;2022-11-30T21:39:02;22.10;;;11.47;;
17496;SDS011;62150;43.582;1.456;2022-11-30T21:41:31;22.13;;;11.30;;
17496;SDS011;62150;43.582;1.456;2022-11-30T21:43:59;20.37;;;10.07;;
17496;SDS011;62150;43.582;1.456;2022-11-30T21:46:27;21.90;;;11.40;;
17496;SDS011;62150;43.582;1.456;2022-11-30T21:48:54;22.50;;;11.43;;
17496;SDS011;62150;43.582;1.456;2022-11-30T21:51:23;21.00;;;11.37;;
17496;SDS011;62150;43.582;1.456;2022-11-30T21:53:54;21.60;;;11.07;;
17496;SDS011;62150;43.582;1.456;2022-11-30T21:56:23;21.23;;;10.80;;
17496;SDS011;62150;43.582;1.456;2022-11-30T21:58:52;21.10;;;10.90;;
17496;SDS011;62150;43.582;1.456;2022-11-30T22:01:21;20.87;;;10.47;;